Airfield :
LOGIN :

Register | Disclaimer

   EN    FR    IT 

 










Legend :    VFR   Marginal VFR   IFR   Intensive IFR   Very Intensive IFR
Visi :
Ceiling :
>= 8 km
>= 3000ft
5 to 8 km
1000 to 3000 ft
1500m to 5 km
500 to 1000 ft
800 to 1500m
200 to 500 ft
< 800m
< 200 ft
Symbols :   Thunderstorms  Fog  Heavy snow  Heavy precipitations  Wind > 20 kt
SIGMETs :     Misc.  Thunderstorms  Icing  Turbulence  Mountain Waves  Volcanic Ashes






- Airport Elevation : 1585 ft
- IATA code : SIR


LSGS - Sion

CURRENT METAR :
  • 280520Z AUTO 10003KT 9999 BKN043 07/05 Q1015

EXPIRED METARs :
  • 280450Z AUTO 10003KT 9999 OVC044 07/05 Q1014
  • 280420Z AUTO 08003KT 9999 OVC047 07/05 Q1014
  • 280350Z AUTO 07004KT 040V100 9999 OVC047 08/04 Q1014
  • 280320Z AUTO 09004KT 9999 BKN046 07/04 Q1014
  • 280250Z AUTO 10004KT 9999 BKN045 07/04 Q1013
  • 280220Z AUTO 09003KT 9999 BKN045 07/04 Q1013
  • 280150Z AUTO 08002KT 9999 SCT044 SCT050 07/04 Q1013
  • 280120Z AUTO VRB02KT 9999 BKN042 07/04 Q1013
  • 280050Z AUTO 00000KT 9999 BKN044 08/04 Q1013

Expired Forecast.



MET'MAP, your aeronautical weather chart ! - Copyright ORBIFLY December 2007 - Disclaimer

ORBIFLY MET'MAP TEAM :

Programming & Development : Alexandra Zaïnal
Original concept : Baudouin d'Aumeries
Technical & hardware support : Manuel Goepfert
Assistance : Marc-Olivier Méhu




SOURCES & CREDITS :

   NOAA